createdAt,value
2023-01-03T00:00:00.855Z,83.2
2023-01-03T00:01:01.153Z,83.4
2023-01-03T00:02:01.232Z,83.4
2023-01-03T00:03:00.908Z,83.1
2023-01-03T00:04:01.075Z,82.7
2023-01-03T00:05:00.998Z,82.7
2023-01-03T00:06:00.896Z,82.9
2023-01-03T00:07:00.928Z,83.1
2023-01-03T00:08:00.922Z,83.0
2023-01-03T00:09:00.919Z,83.0
2023-01-03T00:10:00.930Z,82.8
2023-01-03T00:11:00.951Z,82.2
2023-01-03T00:12:00.963Z,82.4
2023-01-03T00:13:00.943Z,82.2
2023-01-03T00:14:00.953Z,82.3
2023-01-03T00:15:00.963Z,82.4
2023-01-03T00:16:00.972Z,82.3
2023-01-03T00:17:01.403Z,82.4
2023-01-03T00:18:00.990Z,82.2
2023-01-03T00:19:01.010Z,82.2
2023-01-03T00:20:00.998Z,82.4
2023-01-03T00:21:01.007Z,82.4
2023-01-03T00:22:01.184Z,82.3
2023-01-03T00:23:01.005Z,82.1
2023-01-03T00:24:01.032Z,82.1
2023-01-03T00:25:01.031Z,82.2
2023-01-03T00:26:01.053Z,82.2
2023-01-03T00:27:01.095Z,81.9
2023-01-03T00:28:01.051Z,81.8
2023-01-03T00:29:01.101Z,81.9
2023-01-03T00:30:01.078Z,82.0
2023-01-03T00:31:01.297Z,81.6
2023-01-03T00:32:01.080Z,81.8
2023-01-03T00:33:01.101Z,81.7
2023-01-03T00:34:01.078Z,81.7
2023-01-03T00:35:05.876Z,81.4
2023-01-03T00:36:01.105Z,81.5
2023-01-03T00:37:01.128Z,81.6
2023-01-03T00:38:01.121Z,81.4
2023-01-03T00:39:01.193Z,81.5
2023-01-03T00:40:01.130Z,81.6
2023-01-03T00:41:01.139Z,81.7
2023-01-03T00:42:01.150Z,81.7
2023-01-03T00:43:01.155Z,81.6
2023-01-03T00:44:01.151Z,81.6
2023-01-03T00:45:01.177Z,81.7
2023-01-03T00:46:01.345Z,81.6
2023-01-03T00:47:01.183Z,81.8
2023-01-03T00:48:01.196Z,82.0
2023-01-03T00:49:01.183Z,82.3
2023-01-03T00:50:01.183Z,82.5
2023-01-03T00:51:01.186Z,82.8
2023-01-03T00:52:01.216Z,83.2
2023-01-03T00:53:01.229Z,83.4
2023-01-03T00:54:01.216Z,83.8
2023-01-03T00:55:01.253Z,84.1
2023-01-03T00:56:01.242Z,84.5
2023-01-03T00:57:01.228Z,84.4
2023-01-03T00:58:01.247Z,84.6
2023-01-03T00:59:01.252Z,84.7
2023-01-03T01:00:01.240Z,84.8
2023-01-03T01:01:01.351Z,85.0
2023-01-03T01:02:01.963Z,84.9
2023-01-03T01:03:01.953Z,84.9
2023-01-03T01:04:01.439Z,84.8
2023-01-03T01:05:01.286Z,85.0
2023-01-03T01:06:01.292Z,85.1
2023-01-03T01:07:01.437Z,84.8
2023-01-03T01:08:01.357Z,84.8
2023-01-03T01:09:01.324Z,84.9
2023-01-03T01:10:01.378Z,85.0
2023-01-03T01:11:01.344Z,85.1
2023-01-03T01:12:01.365Z,85.0
2023-01-03T01:13:01.354Z,85.2
2023-01-03T01:14:01.372Z,85.2
2023-01-03T01:15:01.371Z,85.6
2023-01-03T01:16:01.710Z,85.6
2023-01-03T01:17:01.382Z,85.5
2023-01-03T01:18:01.374Z,85.6
2023-01-03T01:19:01.397Z,85.4
2023-01-03T01:20:01.421Z,85.4
2023-01-03T01:21:01.402Z,85.2
2023-01-03T01:22:01.443Z,85.2
2023-01-03T01:23:01.417Z,84.8
2023-01-03T01:24:01.444Z,84.7
2023-01-03T01:25:01.457Z,84.9
2023-01-03T01:26:01.445Z,85.1
2023-01-03T01:27:01.497Z,85.2
2023-01-03T01:28:01.445Z,85.3
2023-01-03T01:29:01.454Z,85.4
2023-01-03T01:30:01.462Z,85.4
2023-01-03T01:31:01.684Z,85.7
2023-01-03T01:32:01.689Z,85.7
2023-01-03T01:33:01.483Z,85.8
2023-01-03T01:34:01.504Z,85.9
2023-01-03T01:35:01.510Z,86.0
2023-01-03T01:36:01.511Z,86.0
2023-01-03T01:37:01.525Z,86.3
2023-01-03T01:38:01.497Z,86.2
2023-01-03T01:39:01.540Z,86.2
2023-01-03T01:40:01.608Z,86.5
2023-01-03T01:41:01.528Z,86.5
2023-01-03T01:42:01.528Z,86.6
2023-01-03T01:43:01.543Z,86.5
2023-01-03T01:44:01.539Z,86.3
2023-01-03T01:45:01.605Z,86.3
2023-01-03T01:46:01.720Z,86.5
2023-01-03T01:47:01.563Z,87.0
2023-01-03T01:48:01.564Z,86.9
2023-01-03T01:49:01.587Z,86.9
2023-01-03T01:50:01.583Z,86.9
2023-01-03T02:08:02.057Z,88.5
2023-01-03T02:09:01.755Z,88.4
2023-01-03T02:10:01.784Z,88.3
2023-01-03T02:11:01.766Z,88.4
2023-01-03T02:12:01.730Z,88.3
2023-01-03T02:13:01.750Z,88.5
2023-01-03T02:14:01.757Z,88.5
2023-01-03T02:15:01.793Z,88.4
2023-01-03T02:16:02.049Z,88.4
2023-01-03T02:17:01.792Z,88.5
2023-01-03T02:18:01.786Z,88.6
2023-01-03T02:19:01.798Z,88.7
2023-01-03T02:20:01.830Z,88.7
2023-01-03T02:21:01.842Z,88.7
2023-01-03T02:22:01.827Z,88.7
2023-01-03T02:23:01.856Z,88.9
2023-01-03T02:24:01.837Z,88.9
2023-01-03T02:25:01.840Z,88.9
2023-01-03T02:26:01.853Z,89.1
2023-01-03T02:27:01.877Z,88.9
2023-01-03T02:28:01.867Z,88.8
2023-01-03T02:29:01.892Z,88.8
2023-01-03T02:30:01.951Z,88.8
2023-01-03T02:31:02.043Z,89.3
2023-01-03T02:32:01.906Z,89.2
2023-01-03T02:33:01.909Z,89.0
2023-01-03T02:34:01.903Z,88.9
2023-01-03T02:35:01.921Z,88.9
2023-01-03T02:36:01.926Z,89.0
2023-01-03T02:37:01.943Z,89.0
2023-01-03T02:38:01.933Z,88.9
2023-01-03T02:39:01.960Z,89.6
2023-01-03T02:40:01.975Z,89.8
2023-01-03T02:41:01.962Z,89.7
2023-01-03T02:42:01.967Z,89.8
2023-01-03T02:43:02.221Z,89.8
2023-01-03T02:44:02.017Z,89.8
2023-01-03T02:45:02.024Z,89.8
2023-01-03T02:46:02.188Z,89.8
2023-01-03T02:47:02.224Z,89.8
2023-01-03T02:48:02.022Z,89.9
2023-01-03T02:49:02.008Z,90.1
2023-01-03T02:50:02.091Z,90.2
2023-01-03T02:51:02.024Z,90.3
2023-01-03T02:52:02.040Z,90.4
2023-01-03T02:53:02.054Z,90.4
2023-01-03T02:54:02.048Z,90.4
2023-01-03T02:55:02.177Z,90.2
2023-01-03T02:56:02.079Z,90.1
2023-01-03T02:57:02.087Z,89.9
2023-01-03T02:58:02.082Z,89.8
2023-01-03T02:59:02.099Z,89.6
2023-01-03T03:00:02.113Z,89.5
2023-01-03T03:01:02.119Z,89.4
2023-01-03T03:02:02.542Z,89.4
2023-01-03T03:03:02.583Z,89.5
2023-01-03T03:04:02.392Z,89.6
2023-01-03T03:05:02.139Z,89.5
2023-01-03T03:06:02.184Z,89.5
2023-01-03T03:07:02.136Z,89.6
2023-01-03T03:08:02.156Z,89.6
2023-01-03T03:09:02.171Z,89.5
2023-01-03T03:10:02.148Z,89.6
2023-01-03T03:11:02.165Z,89.5
2023-01-03T03:12:02.187Z,89.5
2023-01-03T03:13:02.182Z,89.4
2023-01-03T03:14:02.170Z,89.6
2023-01-03T03:15:02.182Z,89.7
2023-01-03T03:16:02.361Z,89.6
2023-01-03T03:17:02.199Z,89.6
2023-01-03T03:18:02.225Z,89.7
2023-01-03T03:19:02.243Z,89.7
2023-01-03T03:20:07.196Z,89.8
2023-01-03T03:21:02.227Z,89.9
2023-01-03T03:22:02.228Z,89.8
2023-01-03T03:23:02.263Z,89.6
2023-01-03T03:24:02.260Z,89.4
2023-01-03T03:25:02.273Z,89.4
2023-01-03T03:26:02.261Z,89.4
2023-01-03T03:27:02.275Z,89.4
2023-01-03T03:28:02.291Z,89.7
2023-01-03T03:29:02.300Z,89.8
2023-01-03T03:30:02.340Z,89.9
2023-01-03T03:31:02.603Z,90.0
2023-01-03T03:32:02.313Z,89.9
2023-01-03T03:33:02.334Z,89.8
2023-01-03T03:34:02.343Z,89.7
2023-01-03T03:35:02.346Z,89.9
2023-01-03T03:36:02.355Z,89.9
2023-01-03T03:37:02.368Z,89.7
2023-01-03T03:38:02.357Z,89.6
2023-01-03T03:39:02.382Z,89.5
2023-01-03T03:40:02.459Z,89.6
2023-01-03T03:41:02.398Z,89.7
2023-01-03T03:42:02.423Z,89.9
2023-01-03T03:43:02.409Z,90.0
2023-01-03T03:44:02.439Z,89.8
2023-01-03T03:45:03.341Z,89.7
2023-01-03T03:46:02.431Z,89.8
2023-01-03T03:47:05.747Z,89.8
2023-01-03T03:48:02.459Z,90.0
2023-01-03T03:49:02.470Z,90.1
2023-01-03T03:50:02.463Z,90.1
2023-01-03T03:51:02.450Z,90.0
2023-01-03T03:52:02.469Z,89.9
2023-01-03T03:53:02.517Z,90.1
2023-01-03T03:54:02.489Z,90.1
2023-01-03T03:55:02.491Z,90.0
2023-01-03T03:56:02.566Z,89.9
2023-01-03T03:57:02.501Z,89.9
2023-01-03T03:58:02.513Z,89.8
2023-01-03T03:59:02.517Z,89.7
2023-01-03T04:00:02.512Z,89.6
2023-01-03T04:01:02.542Z,89.6
2023-01-03T04:02:02.934Z,89.7
2023-01-03T04:03:03.181Z,89.7
2023-01-03T04:04:02.824Z,89.6
2023-01-03T04:05:02.559Z,89.5
2023-01-03T04:06:02.560Z,89.5
2023-01-03T04:07:02.579Z,89.7
2023-01-03T04:08:02.601Z,89.9
2023-01-03T04:09:02.581Z,89.9
2023-01-03T04:10:02.578Z,89.8
2023-01-03T04:11:02.600Z,89.8
2023-01-03T04:12:02.679Z,89.7
2023-01-03T04:13:02.609Z,89.8
2023-01-03T04:14:02.627Z,89.8
2023-01-03T04:15:02.640Z,89.8
2023-01-03T04:16:02.821Z,90.0
2023-01-03T04:17:02.645Z,90.2
2023-01-03T04:18:02.794Z,90.4
2023-01-03T04:19:02.647Z,90.3
2023-01-03T04:20:02.646Z,90.2
2023-01-03T04:21:02.684Z,90.2
2023-01-03T04:22:02.765Z,90.1
2023-01-03T04:23:02.696Z,90.2
2023-01-03T04:24:02.686Z,90.2
2023-01-03T04:25:02.713Z,90.1
2023-01-03T04:26:02.706Z,90.1
2023-01-03T04:27:02.715Z,90.2
2023-01-03T04:28:02.720Z,90.2
2023-01-03T04:29:02.788Z,90.2
2023-01-03T04:30:02.755Z,90.1
2023-01-03T04:31:02.774Z,90.1
2023-01-03T04:32:03.140Z,90.1
2023-01-03T04:33:02.759Z,90.2
2023-01-03T04:34:02.759Z,90.4
2023-01-03T04:35:02.802Z,90.4
2023-01-03T04:36:02.777Z,90.3
2023-01-03T04:37:02.810Z,90.5
2023-01-03T04:38:02.798Z,90.5
2023-01-03T04:39:02.815Z,90.5
2023-01-03T04:40:02.829Z,90.5
2023-01-03T04:41:02.837Z,90.6
2023-01-03T04:42:02.811Z,90.7
2023-01-03T04:43:02.879Z,90.8
2023-01-03T04:44:02.895Z,90.9
2023-01-03T04:45:02.870Z,90.8
2023-01-03T04:46:03.159Z,90.8
2023-01-03T04:47:02.864Z,90.8
2023-01-03T04:48:02.898Z,90.8
2023-01-03T04:49:02.890Z,90.7
2023-01-03T04:50:02.902Z,90.7
2023-01-03T04:51:02.906Z,90.6
2023-01-03T04:52:02.905Z,90.3
2023-01-03T04:53:02.914Z,90.3
2023-01-03T04:54:02.903Z,90.1
2023-01-03T04:55:02.924Z,90.1
2023-01-03T04:56:02.937Z,90.1
2023-01-03T04:57:02.942Z,90.1
2023-01-03T04:58:02.944Z,90.1
2023-01-03T04:59:02.970Z,90.2
2023-01-03T05:00:02.960Z,90.2
2023-01-03T05:01:03.244Z,90.2
2023-01-03T05:02:03.534Z,90.1
2023-01-03T05:03:03.000Z,90.1
2023-01-03T05:04:03.316Z,90.2
2023-01-03T05:05:03.013Z,90.1
2023-01-03T05:06:03.048Z,90.1
2023-01-03T05:07:03.019Z,90.0
2023-01-03T05:08:03.032Z,89.9
2023-01-03T05:09:03.051Z,89.9
2023-01-03T05:10:03.041Z,89.8
2023-01-03T05:11:03.071Z,89.7
2023-01-03T05:12:03.058Z,89.6
2023-01-03T05:13:03.052Z,89.6
2023-01-03T05:14:03.071Z,89.4
2023-01-03T05:15:03.078Z,89.4
2023-01-03T05:16:03.239Z,89.3
2023-01-03T05:17:03.344Z,89.3
2023-01-03T05:18:03.098Z,89.2
2023-01-03T05:19:03.112Z,89.1
2023-01-03T05:20:03.120Z,89.1
2023-01-03T05:21:03.107Z,89.1
2023-01-03T05:22:03.134Z,89.2
2023-01-03T05:23:03.123Z,89.2
2023-01-03T05:24:03.160Z,89.2
2023-01-03T05:25:03.149Z,89.1
2023-01-03T05:26:03.181Z,89.0
2023-01-03T05:27:03.191Z,88.9
2023-01-03T05:28:03.193Z,88.3
2023-01-03T05:29:03.191Z,88.3
2023-01-03T05:30:03.211Z,88.0
2023-01-03T05:31:03.206Z,87.8
2023-01-03T05:32:03.446Z,87.7
2023-01-03T05:33:03.285Z,87.6
2023-01-03T05:34:03.232Z,87.5
2023-01-03T05:35:03.229Z,87.3
2023-01-03T05:36:03.230Z,87.2
2023-01-03T05:37:03.232Z,87.1
2023-01-03T05:38:03.260Z,87.0
2023-01-03T05:39:03.255Z,87.0
2023-01-03T05:40:03.263Z,86.9
2023-01-03T05:41:03.257Z,86.8
2023-01-03T05:42:03.279Z,86.8
2023-01-03T05:43:03.283Z,86.6
2023-01-03T05:44:03.305Z,86.5
2023-01-03T05:45:03.309Z,86.5
2023-01-03T05:46:03.569Z,86.5
2023-01-03T05:47:03.342Z,86.4
2023-01-03T05:48:03.323Z,86.1
2023-01-03T05:49:03.314Z,86.0
2023-01-03T05:50:03.376Z,86.1
2023-01-03T05:51:03.348Z,86.0
2023-01-03T05:52:03.357Z,85.8
2023-01-03T05:53:03.352Z,85.7
2023-01-03T05:54:03.365Z,85.7
2023-01-03T05:55:03.376Z,85.7
2023-01-03T05:56:03.402Z,85.7
2023-01-03T05:57:03.397Z,85.5
2023-01-03T05:58:03.383Z,85.3
2023-01-03T05:59:03.428Z,85.3
2023-01-03T06:00:03.408Z,85.1
2023-01-03T06:01:03.417Z,85.0
2023-01-03T06:02:03.992Z,85.0
2023-01-03T06:03:03.793Z,85.0
2023-01-03T06:04:03.682Z,85.1
2023-01-03T06:05:03.490Z,84.8
2023-01-03T06:06:03.452Z,84.9
2023-01-03T06:07:03.493Z,84.8
2023-01-03T06:08:03.472Z,84.8
2023-01-03T06:09:03.486Z,84.9
2023-01-03T06:10:03.491Z,84.7
2023-01-03T06:11:03.740Z,84.6
2023-01-03T06:12:03.490Z,84.7
2023-01-03T06:13:03.514Z,84.9
2023-01-03T06:14:03.541Z,84.9
2023-01-03T06:15:03.529Z,84.9
2023-01-03T06:16:03.511Z,84.9
2023-01-03T06:17:03.716Z,85.0
2023-01-03T06:18:03.553Z,85.0
2023-01-03T06:19:03.554Z,85.1
2023-01-03T06:20:03.598Z,85.2
2023-01-03T06:21:03.569Z,85.1
2023-01-03T06:22:11.545Z,85.1
2023-01-03T06:23:03.615Z,85.1
2023-01-03T06:24:03.696Z,85.2
2023-01-03T06:25:03.630Z,85.2
2023-01-03T06:26:03.618Z,85.2
2023-01-03T06:27:03.656Z,85.2
2023-01-03T06:28:03.653Z,84.8
2023-01-03T06:29:03.658Z,84.9
2023-01-03T06:30:03.685Z,84.8
2023-01-03T06:31:03.857Z,84.4
2023-01-03T06:32:10.252Z,84.5
2023-01-03T06:33:03.671Z,84.6
2023-01-03T06:34:03.699Z,84.6
2023-01-03T06:35:03.691Z,84.8
2023-01-03T06:36:03.709Z,84.8
2023-01-03T06:37:03.714Z,84.8
2023-01-03T06:38:03.728Z,84.8
2023-01-03T06:39:03.729Z,84.7
2023-01-03T06:40:03.750Z,84.7
2023-01-03T06:41:03.731Z,84.8
2023-01-03T06:42:03.760Z,84.8
2023-01-03T06:43:03.751Z,84.8
2023-01-03T06:44:03.777Z,84.8
2023-01-03T06:45:03.764Z,84.8
2023-01-03T06:46:03.923Z,84.9
2023-01-03T06:47:03.786Z,84.9
2023-01-03T06:48:03.835Z,85.0
2023-01-03T06:49:03.817Z,85.0
2023-01-03T06:50:03.938Z,84.9
2023-01-03T06:51:03.828Z,84.9
2023-01-03T06:52:03.840Z,84.5
2023-01-03T06:53:03.851Z,84.5
2023-01-03T06:54:03.863Z,84.5
2023-01-03T06:55:03.898Z,84.5
2023-01-03T06:56:03.874Z,84.0
2023-01-03T06:57:03.903Z,84.2
2023-01-03T06:58:03.900Z,84.2
2023-01-03T06:59:03.888Z,84.3
2023-01-03T07:00:03.913Z,84.2
2023-01-03T07:01:04.460Z,84.2
2023-01-03T07:02:04.466Z,84.2
2023-01-03T07:03:12.040Z,84.2
2023-01-03T07:04:04.117Z,84.2
2023-01-03T07:05:03.936Z,84.2
2023-01-03T07:06:04.030Z,84.2
2023-01-03T07:07:03.947Z,84.2
2023-01-03T07:08:03.952Z,84.3
2023-01-03T07:09:03.969Z,84.3
2023-01-03T07:10:03.982Z,84.3
2023-01-03T07:11:03.971Z,84.4
2023-01-03T07:12:03.968Z,84.5
2023-01-03T07:13:04.003Z,84.6
2023-01-03T07:14:04.022Z,84.5
2023-01-03T07:15:04.008Z,84.7
2023-01-03T07:16:04.342Z,84.8
2023-01-03T07:17:04.027Z,85.0
2023-01-03T07:18:04.017Z,85.1
2023-01-03T07:19:04.030Z,85.4
2023-01-03T07:20:04.050Z,85.6
2023-01-03T07:21:04.053Z,85.7
2023-01-03T07:22:04.076Z,85.8
2023-01-03T07:23:04.096Z,85.9
2023-01-03T07:24:04.098Z,85.9
2023-01-03T07:25:04.095Z,86.0
2023-01-03T07:26:04.110Z,86.1
2023-01-03T07:27:04.109Z,86.2
2023-01-03T07:28:11.350Z,86.4
2023-01-03T07:29:04.156Z,86.6
2023-01-03T07:30:04.132Z,86.8
2023-01-03T07:31:04.288Z,87.0
2023-01-03T07:32:04.154Z,86.9
2023-01-03T07:33:04.175Z,87.0
2023-01-03T07:34:04.170Z,87.1
2023-01-03T07:35:04.166Z,87.2
2023-01-03T07:36:12.433Z,87.1
2023-01-03T07:37:04.182Z,87.3
2023-01-03T07:38:04.199Z,87.4
2023-01-03T07:39:04.244Z,87.4
2023-01-03T07:40:04.302Z,87.4
2023-01-03T07:41:04.239Z,87.4
2023-01-03T07:42:04.238Z,87.3
2023-01-03T07:43:04.218Z,87.2
2023-01-03T07:44:04.232Z,87.2
2023-01-03T07:45:04.256Z,87.3
2023-01-03T07:46:04.468Z,87.3
2023-01-03T07:47:04.283Z,87.3
2023-01-03T07:48:04.272Z,87.4
2023-01-03T07:49:12.692Z,87.4
2023-01-03T07:50:04.299Z,87.4
2023-01-03T07:51:04.309Z,87.4
2023-01-03T07:52:04.308Z,87.5
2023-01-03T07:53:04.312Z,87.5
2023-01-03T07:54:04.343Z,87.4
2023-01-03T07:55:04.335Z,87.4
2023-01-03T07:56:13.793Z,87.3
2023-01-03T07:57:04.350Z,87.4
2023-01-03T07:58:04.397Z,87.2
2023-01-03T07:59:04.369Z,87.2
2023-01-03T08:00:04.388Z,87.3
2023-01-03T08:01:04.392Z,87.2
2023-01-03T08:02:04.725Z,87.2
2023-01-03T08:03:12.076Z,87.2
2023-01-03T08:04:04.399Z,87.2
2023-01-03T08:05:04.783Z,87.0
2023-01-03T08:06:04.426Z,87.0
2023-01-03T08:07:04.484Z,86.9
2023-01-03T08:08:04.464Z,86.8
2023-01-03T08:09:06.775Z,86.8
2023-01-03T08:10:04.439Z,86.7
2023-01-03T08:11:04.459Z,86.7
2023-01-03T08:12:04.494Z,86.8
2023-01-03T08:13:04.593Z,86.9
2023-01-03T08:14:04.491Z,86.8
2023-01-03T08:15:04.533Z,86.8
2023-01-03T08:16:04.747Z,86.8
2023-01-03T08:17:04.512Z,86.8
2023-01-03T08:18:04.535Z,86.8
2023-01-03T08:19:04.525Z,86.7
2023-01-03T08:20:04.520Z,86.7
2023-01-03T08:21:04.555Z,86.7
2023-01-03T08:22:04.561Z,86.7
2023-01-03T08:23:04.565Z,86.7
2023-01-03T08:24:04.562Z,86.7
2023-01-03T08:25:04.570Z,86.6
2023-01-03T08:26:04.587Z,86.8
2023-01-03T08:27:04.595Z,86.8
2023-01-03T08:28:04.641Z,86.7
2023-01-03T08:29:04.620Z,86.7
2023-01-03T08:30:04.635Z,86.6
2023-01-03T08:31:04.762Z,86.5
2023-01-03T08:32:04.653Z,86.3
2023-01-03T08:33:04.643Z,86.3
2023-01-03T08:34:18.718Z,86.5
2023-01-03T08:35:04.672Z,86.5
2023-01-03T08:36:04.689Z,86.3
2023-01-03T08:37:04.689Z,86.3
2023-01-03T08:38:04.783Z,86.3
2023-01-03T08:39:04.705Z,86.3
2023-01-03T08:40:04.721Z,86.2
2023-01-03T08:41:04.720Z,86.2
2023-01-03T08:42:04.762Z,86.2
2023-01-03T08:43:04.765Z,86.3
2023-01-03T08:44:04.758Z,86.2
2023-01-03T08:45:04.757Z,86.2
2023-01-03T08:46:04.774Z,86.1
2023-01-03T08:47:08.841Z,86.2
2023-01-03T08:48:04.804Z,86.1
2023-01-03T08:49:04.806Z,86.2
2023-01-03T08:50:04.826Z,86.3
2023-01-03T08:51:04.814Z,86.3
2023-01-03T08:52:04.867Z,86.3
2023-01-03T08:53:04.842Z,86.4
2023-01-03T08:54:04.857Z,86.5
2023-01-03T08:55:04.869Z,86.4
2023-01-03T08:56:04.884Z,86.4
2023-01-03T08:57:04.901Z,86.4
2023-01-03T08:58:04.905Z,86.5
2023-01-03T08:59:04.902Z,86.5
2023-01-03T09:00:04.923Z,86.7
2023-01-03T09:01:04.991Z,86.8
2023-01-03T09:02:05.533Z,86.8
2023-01-03T09:03:05.859Z,86.8
2023-01-03T09:04:05.425Z,86.9
2023-01-03T09:05:04.928Z,87.0
2023-01-03T09:06:04.959Z,86.9
2023-01-03T09:07:04.976Z,87.0
2023-01-03T09:08:04.962Z,87.1
2023-01-03T09:09:04.965Z,87.0
2023-01-03T09:10:05.001Z,87.0
2023-01-03T09:11:04.982Z,87.0
2023-01-03T09:12:05.020Z,86.8
2023-01-03T09:13:05.010Z,87.0
2023-01-03T09:14:05.031Z,87.1
2023-01-03T09:15:05.039Z,87.0
2023-01-03T09:16:05.301Z,87.0
2023-01-03T09:17:05.070Z,87.0
2023-01-03T09:18:05.045Z,86.9
2023-01-03T09:19:05.058Z,86.8
2023-01-03T09:20:05.103Z,86.8
2023-01-03T09:21:05.153Z,86.8
2023-01-03T09:22:05.098Z,86.9
2023-01-03T09:23:05.130Z,86.7
2023-01-03T09:24:05.141Z,86.9
2023-01-03T09:25:05.147Z,87.0
2023-01-03T09:26:05.141Z,86.9
2023-01-03T09:27:05.159Z,87.0
2023-01-03T09:28:05.152Z,87.0
2023-01-03T09:29:05.173Z,87.1
2023-01-03T09:30:05.217Z,87.1
2023-01-03T09:31:05.465Z,87.0
2023-01-03T09:32:05.510Z,87.0
2023-01-03T09:33:05.219Z,87.0
2023-01-03T09:34:05.288Z,86.5
2023-01-03T09:35:05.201Z,86.4
2023-01-03T09:36:05.220Z,86.2
2023-01-03T09:37:05.226Z,85.6
2023-01-03T09:38:05.252Z,85.5
2023-01-03T09:39:05.271Z,85.3
2023-01-03T09:40:05.416Z,84.9
2023-01-03T09:41:05.259Z,84.8
2023-01-03T09:42:05.267Z,84.5
2023-01-03T09:43:05.297Z,84.2
2023-01-03T09:44:05.267Z,83.4
2023-01-03T09:45:05.289Z,83.6
2023-01-03T09:46:05.295Z,83.6
2023-01-03T09:47:05.738Z,83.5
2023-01-03T09:48:05.365Z,83.4
2023-01-03T09:49:05.321Z,83.1
2023-01-03T09:50:39.155Z,83.1
2023-01-03T09:51:29.387Z,82.8
2023-01-03T09:52:05.348Z,82.8
2023-01-03T09:53:05.369Z,82.7
2023-01-03T09:54:05.401Z,82.5
2023-01-03T09:55:05.371Z,82.0
2023-01-03T09:56:05.383Z,81.3
2023-01-03T09:57:05.385Z,81.5
2023-01-03T09:58:05.387Z,81.6
2023-01-03T09:59:05.392Z,81.1
2023-01-03T10:00:05.421Z,81.0
2023-01-03T10:01:05.914Z,81.1
2023-01-03T10:02:06.223Z,80.9
2023-01-03T10:03:05.954Z,80.6
2023-01-03T10:04:05.561Z,80.7
2023-01-03T10:05:05.464Z,80.4
2023-01-03T10:06:05.475Z,80.0
2023-01-03T10:07:05.503Z,79.4
2023-01-03T10:08:05.507Z,79.2
2023-01-03T10:09:05.511Z,79.2
2023-01-03T10:10:14.870Z,79.5
2023-01-03T10:11:05.534Z,79.4
2023-01-03T10:12:05.525Z,79.6
2023-01-03T10:13:05.544Z,79.9
2023-01-03T10:14:05.574Z,79.9
2023-01-03T10:15:05.652Z,80.0
2023-01-03T10:16:05.686Z,80.1
2023-01-03T10:17:05.819Z,79.3
2023-01-03T10:18:05.604Z,79.2
2023-01-03T10:19:05.674Z,79.0
2023-01-03T10:20:05.617Z,79.3
2023-01-03T10:21:05.606Z,78.8
2023-01-03T10:22:05.630Z,78.9
2023-01-03T10:23:05.621Z,78.8
2023-01-03T10:24:05.655Z,78.5
2023-01-03T10:25:05.697Z,78.6
2023-01-03T10:26:05.653Z,78.8
2023-01-03T10:27:05.659Z,79.0
2023-01-03T10:28:05.697Z,78.3
2023-01-03T10:29:05.741Z,78.4
2023-01-03T10:30:05.722Z,78.7
2023-01-03T10:31:08.841Z,79.0
2023-01-03T10:32:05.898Z,78.8
2023-01-03T10:33:05.723Z,79.0
2023-01-03T10:34:05.747Z,79.0
2023-01-03T10:35:05.735Z,78.5
2023-01-03T10:36:05.745Z,78.7
2023-01-03T10:37:05.766Z,78.3
2023-01-03T10:38:05.801Z,77.8
2023-01-03T10:39:05.783Z,77.9
2023-01-03T10:40:05.892Z,77.4
2023-01-03T10:41:05.794Z,77.9
2023-01-03T10:42:05.826Z,78.1
2023-01-03T10:43:05.813Z,78.2
2023-01-03T10:44:05.841Z,78.1
2023-01-03T10:45:05.840Z,78.2
2023-01-03T10:46:06.082Z,78.4
2023-01-03T10:47:05.850Z,77.9
2023-01-03T10:48:05.875Z,77.8
2023-01-03T10:49:27.683Z,78.0
2023-01-03T10:50:05.893Z,78.1
2023-01-03T10:51:05.891Z,77.9
2023-01-03T10:52:05.896Z,77.0
2023-01-03T10:53:05.929Z,76.7
2023-01-03T10:54:05.932Z,77.2
2023-01-03T10:55:05.944Z,77.6
2023-01-03T10:56:05.942Z,77.1
2023-01-03T10:57:05.985Z,77.4
2023-01-03T10:58:06.042Z,77.6
2023-01-03T10:59:05.954Z,76.5
2023-01-03T11:00:05.995Z,77.1
2023-01-03T11:01:06.377Z,76.9
2023-01-03T11:02:06.679Z,77.2
2023-01-03T11:03:06.771Z,76.7
2023-01-03T11:04:05.998Z,76.3
2023-01-03T11:05:06.024Z,76.5
2023-01-03T11:06:06.028Z,76.9
2023-01-03T11:07:06.066Z,76.6
2023-01-03T11:08:06.058Z,76.4
2023-01-03T11:09:06.079Z,75.8
2023-01-03T11:10:06.076Z,75.8
2023-01-03T11:11:06.088Z,75.9
2023-01-03T11:12:06.161Z,76.1
2023-01-03T11:13:06.093Z,76.0
2023-01-03T11:14:06.115Z,75.8
2023-01-03T11:15:06.111Z,75.5
2023-01-03T11:16:06.135Z,74.5
2023-01-03T11:17:06.571Z,75.0
2023-01-03T11:18:06.170Z,75.0
2023-01-03T11:19:06.201Z,74.9
2023-01-03T11:20:06.170Z,74.2
2023-01-03T11:21:06.195Z,73.9
2023-01-03T11:22:06.194Z,74.0
2023-01-03T11:23:06.203Z,73.6
2023-01-03T11:24:06.247Z,73.8
2023-01-03T11:25:06.243Z,74.3
2023-01-03T11:26:06.332Z,74.0
2023-01-03T11:27:06.228Z,73.3
2023-01-03T11:28:16.812Z,73.7
2023-01-03T11:29:06.610Z,72.9
2023-01-03T11:30:06.314Z,72.8
2023-01-03T11:31:06.262Z,72.0
2023-01-03T11:32:06.830Z,71.8
2023-01-03T11:33:06.299Z,71.7
2023-01-03T11:34:06.311Z,72.3
2023-01-03T11:35:25.673Z,72.3
2023-01-03T11:36:06.336Z,72.5
2023-01-03T11:37:06.331Z,72.1
2023-01-03T11:38:06.339Z,72.4
2023-01-03T11:39:18.084Z,71.5
2023-01-03T11:40:06.347Z,71.9
2023-01-03T11:41:06.360Z,71.6
2023-01-03T11:42:06.371Z,72.0
2023-01-03T11:43:06.377Z,71.9
2023-01-03T11:44:06.383Z,72.2
2023-01-03T11:45:06.478Z,72.5
2023-01-03T11:46:06.708Z,72.8
2023-01-03T11:47:06.404Z,73.2
2023-01-03T11:48:06.434Z,73.3
2023-01-03T11:49:06.459Z,73.3
2023-01-03T11:50:06.459Z,72.9
2023-01-03T11:51:06.475Z,73.0
2023-01-03T11:52:06.453Z,73.2
2023-01-03T11:53:06.467Z,73.5
2023-01-03T11:54:06.472Z,73.3
2023-01-03T11:55:06.483Z,72.9
2023-01-03T11:56:06.510Z,73.2
2023-01-03T11:57:06.511Z,73.4
2023-01-03T11:58:06.531Z,72.2
2023-01-03T11:59:06.532Z,72.4
2023-01-03T12:00:06.536Z,72.4
2023-01-03T12:01:06.682Z,72.6
2023-01-03T12:02:07.240Z,71.4
2023-01-03T12:03:07.344Z,70.2
2023-01-03T12:04:06.840Z,70.9
2023-01-03T12:05:06.761Z,70.5
2023-01-03T12:06:06.617Z,70.1
2023-01-03T12:08:06.712Z,68.5
2023-01-03T12:09:06.663Z,67.2
2023-01-03T12:10:06.675Z,67.3
2023-01-03T12:11:06.668Z,67.9
2023-01-03T12:12:06.657Z,68.3
2023-01-03T12:13:06.658Z,67.0
2023-01-03T12:14:06.694Z,67.6
2023-01-03T12:15:06.686Z,67.6
2023-01-03T12:16:07.012Z,67.9
2023-01-03T12:17:06.734Z,68.0
2023-01-03T12:18:06.723Z,68.0
2023-01-03T12:19:13.008Z,67.8
2023-01-03T12:20:06.747Z,68.5
2023-01-03T12:21:06.754Z,67.9
2023-01-03T12:22:06.798Z,68.1
2023-01-03T12:23:06.790Z,68.6
2023-01-03T12:24:06.791Z,68.5
2023-01-03T12:25:06.821Z,68.7
2023-01-03T12:26:06.836Z,68.5
2023-01-03T12:27:06.819Z,68.0
2023-01-03T12:28:06.821Z,68.0
2023-01-03T12:29:06.902Z,67.9
2023-01-03T12:30:06.835Z,68.4
2023-01-03T12:31:07.038Z,68.8
2023-01-03T12:32:06.874Z,68.4
2023-01-03T12:33:06.886Z,68.6
2023-01-03T12:34:06.875Z,69.0
2023-01-03T12:35:06.892Z,68.9
2023-01-03T12:36:06.891Z,68.7
2023-01-03T12:37:06.902Z,68.0
2023-01-03T12:38:06.903Z,68.5
2023-01-03T12:39:06.921Z,68.2
2023-01-03T12:40:06.927Z,68.3
2023-01-03T12:41:07.001Z,68.2
2023-01-03T12:42:06.972Z,67.4
2023-01-03T12:43:07.000Z,67.7
2023-01-03T12:44:06.971Z,67.8
2023-01-03T12:45:06.989Z,67.6
2023-01-03T12:46:13.703Z,68.2
2023-01-03T12:47:07.319Z,68.2
2023-01-03T12:48:07.036Z,68.3
2023-01-03T12:49:07.067Z,68.4
2023-01-03T12:50:07.029Z,68.0
2023-01-03T12:51:07.061Z,68.0
2023-01-03T12:52:17.562Z,67.5
2023-01-03T12:53:07.058Z,67.1
2023-01-03T12:54:07.071Z,67.5
2023-01-03T12:55:07.080Z,67.0
2023-01-03T12:56:07.088Z,67.2
2023-01-03T12:57:07.096Z,67.7
2023-01-03T12:58:07.100Z,68.1
2023-01-03T12:59:07.131Z,68.2
2023-01-03T13:00:07.110Z,67.5
2023-01-03T13:01:07.377Z,67.4
2023-01-03T13:02:07.597Z,67.7
2023-01-03T13:03:07.748Z,67.3
2023-01-03T13:04:07.423Z,68.1
2023-01-03T13:05:07.169Z,68.2
2023-01-03T13:06:07.195Z,68.5
2023-01-03T13:07:08.979Z,68.6
2023-01-03T13:08:07.239Z,69.1
2023-01-03T13:09:07.252Z,69.2
2023-01-03T13:10:07.265Z,69.0
2023-01-03T13:11:07.261Z,69.3
2023-01-03T13:12:07.343Z,69.2
2023-01-03T13:13:07.283Z,69.6
2023-01-03T13:14:07.377Z,69.4
2023-01-03T13:15:07.324Z,69.1
2023-01-03T13:16:07.502Z,69.3
2023-01-03T13:17:07.332Z,69.4
2023-01-03T13:18:07.310Z,69.0
2023-01-03T13:19:07.324Z,69.2
2023-01-03T13:20:07.338Z,69.5
2023-01-03T13:21:07.583Z,69.8
2023-01-03T13:22:07.408Z,69.8
2023-01-03T13:23:07.378Z,70.1
2023-01-03T13:24:07.387Z,70.2
2023-01-03T13:25:07.383Z,70.0
2023-01-03T13:26:07.385Z,70.0
2023-01-03T13:27:07.420Z,69.7
2023-01-03T13:28:07.436Z,69.0
2023-01-03T13:29:07.452Z,69.3
2023-01-03T13:30:07.695Z,69.0
2023-01-03T13:31:07.610Z,69.5
2023-01-03T13:32:07.447Z,69.6
2023-01-03T13:33:07.456Z,68.9
2023-01-03T13:34:07.483Z,68.8
2023-01-03T13:35:07.485Z,68.7
2023-01-03T13:36:07.496Z,69.0